• Join FlightAware (Why Join?)
  • Login
  • US Flag 
05:05AM EDT


 

Airport Tracker/Info


-or-


 

Live Flight TrackerFlight Track Log ✈ QFA796 ✈ 20-Aug-2013 ✈ YMML / MEL - YBAS / ASP

Flight Track Log - Related Links

Times and Time Zones

All times are in EDT time to prevent confusion due to time zone crossing. See the QFA796 flight status page for this flight to view local times or setup timezone preferences in your user account.

Time Position Orientation Groundspeed Altitude Reporting Facility
EDT Latitude Longitude Course Direction KTS MPH feet Rate Location/Type
06:57PM -37.6600 144.8180 North 147 169 1,000  Level FlightAware
06:57PM -37.6590 144.7970 273° West 155 178 1,900 2,100 Climbing FlightAware
06:58PM -37.6580 144.7760 273° West 189 217 2,400 1,800 Climbing FlightAware
06:58PM -37.6570 144.7550 273° West 207 238 3,100 2,100 Climbing FlightAware
06:58PM -37.6550 144.7300 276° West 227 261 3,800 1,920 Climbing FlightAware
06:59PM -37.6530 144.7140 279° West 244 281 4,100 1,560 Climbing FlightAware
06:59PM -37.6500 144.7060 295° West 258 297 4,200 1,200 Climbing FlightAware
06:59PM -37.6390 144.6860 305° West 288 331 4,500 1,440 Climbing FlightAware
06:59PM -37.6310 144.6760 315° West 298 343 4,800 2,700 Climbing FlightAware
06:59PM -37.6170 144.6640 326° Northwest 310 357 5,400 3,000 Climbing FlightAware
07:00PM -37.5950 144.6450 326° Northwest 318 366 6,300 2,400 Climbing FlightAware
07:00PM -37.5430 144.6020 327° Northwest 349 402 7,700 2,400 Climbing FlightAware
07:00PM -37.5160 144.5790 326° Northwest 355 409 8,600 2,400 Climbing FlightAware
07:01PM -37.4880 144.5550 326° Northwest 370 426 9,300 2,280 Climbing FlightAware
07:01PM -37.4420 144.5160 326° Northwest 381 438 10,700 2,880 Climbing FlightAware
07:02PM -37.3870 144.4690 326° Northwest 385 443 12,700 3,240 Climbing FlightAware
07:03PM -37.3340 144.4250 327° Northwest 388 447 14,500 2,700 Climbing FlightAware
07:03PM -37.2810 144.3800 326° Northwest 398 458 15,900 2,280 Climbing FlightAware
07:04PM -37.2280 144.3350 326° Northwest 406 467 17,200 2,340 Climbing FlightAware
07:04PM -37.1700 144.2870 327° Northwest 412 474 18,700 2,280 Climbing FlightAware
07:05PM -37.1160 144.2410 326° Northwest 411 473 19,900 2,040 Climbing FlightAware
07:06PM -37.0490 144.1860 327° Northwest 424 488 21,300 1,860 Climbing FlightAware
07:06PM -36.9890 144.1360 326° Northwest 428 493 22,300 1,620 Climbing FlightAware
07:07PM -36.9300 144.0870 326° Northwest 433 498 23,300 1,680 Climbing FlightAware
07:07PM -36.8710 144.0370 326° Northwest 444 511 24,300 1,800 Climbing FlightAware
07:08PM -36.8154 143.9913 326° Northwest 440 506 25,300 1,500 Climbing Aus ATC (RADAR)
07:08PM -36.8110 143.9870 326° Northwest 444 511 25,200 1,020 Descending FlightAware
07:09PM -36.7530 143.9330 323° Northwest 452 520 26,000 1,440 Climbing FlightAware
07:09PM -36.6960 143.8760 321° Northwest 454 522 26,900 1,680 Climbing FlightAware
07:10PM -36.6413 143.8237 321° Northwest 448 516 27,900 1,860 Climbing Aus ATC (RADAR)
07:10PM -36.6370 143.8190 321° Northwest 451 519 28,000 2,040 Climbing FlightAware
07:10PM -36.5848 143.7678 321° Northwest 441 507 29,100 1,680 Climbing Aus ATC (RADAR)
07:10PM -36.5800 143.7630 321° Northwest 447 514 29,000 1,200 Descending FlightAware
07:11PM -36.5230 143.7070 322° Northwest 447 514 29,900 1,500 Climbing FlightAware
07:11PM -36.4709 143.6570 322° Northwest 442 509 30,700 1,200 Climbing Aus ATC (RADAR)
07:11PM -36.4660 143.6520 322° Northwest 448 516 30,600 1,200 Descending FlightAware
07:12PM -36.4090 143.5970 322° Northwest 438 504 31,500 1,620 Climbing FlightAware
07:13PM -36.3510 143.5400 322° Northwest 433 498 32,500 1,500 Climbing FlightAware
07:13PM -36.2970 143.4880 322° Northwest 432 497 33,300 1,080 Climbing FlightAware
07:14PM -36.2410 143.4340 322° Northwest 435 501 33,800 840 Climbing FlightAware
07:14PM -36.1850 143.3800 322° Northwest 436 502 34,300 1,020 Climbing FlightAware
07:15PM -36.1290 143.3260 322° Northwest 435 501 35,000 1,080 Climbing FlightAware
07:16PM -36.0710 143.2700 322° Northwest 434 499 35,600 1,080 Climbing FlightAware
07:16PM -36.0211 143.2221 322° Northwest 433 498 36,200 660 Climbing Aus ATC (RADAR)
07:16PM -36.0170 143.2180 322° Northwest 433 498 36,000 -300 Descending FlightAware
07:17PM -35.9590 143.1620 322° Northwest 434 499 36,000  Level FlightAware
07:17PM -35.9030 143.1090 323° Northwest 436 502 36,000  Level FlightAware
07:18PM -35.8530 143.0610 323° Northwest 442 509 36,000 120 Level FlightAware
07:18PM -35.8436 143.0529 323° Northwest 439 505 36,100  Climbing Aus ATC (RADAR)
07:18PM -35.7900 143.0020 323° Northwest 433 498 36,000 -120 Descending FlightAware
07:19PM -35.7250 142.9400 322° Northwest 432 497 36,000 60 Level FlightAware
07:20PM -35.6751 142.8921 322° Northwest 436 502 36,100  Climbing Aus ATC (RADAR)
07:20PM -35.6700 142.8880 322° Northwest 432 497 36,000 -180 Descending FlightAware
07:20PM -35.6040 142.8240 322° Northwest 432 497 36,000  Level FlightAware
07:21PM -35.5480 142.7710 322° Northwest 433 498 36,000 60 Level FlightAware
07:21PM -35.4980 142.7244 322° Northwest 436 502 36,100  Climbing Aus ATC (RADAR)
07:21PM -35.4990 142.7250 322° Northwest 432 497 36,000 -180 Descending FlightAware
07:22PM -35.4430 142.6730 323° Northwest 431 496 36,000  Level FlightAware
07:23PM -35.3860 142.6190 322° Northwest 430 495 36,000  Level FlightAware
07:23PM -35.3370 142.5730 323° Northwest 430 495 36,000  Level FlightAware
07:24PM -35.2730 142.5130 323° Northwest 431 496 36,000  Level FlightAware
07:24PM -35.2100 142.4540 323° Northwest 430 495 36,000  Level FlightAware
07:25PM -35.1610 142.4090 323° Northwest 426 490 36,000  Level FlightAware
07:26PM -35.1070 142.3580 322° Northwest 430 495 36,000  Level FlightAware
07:26PM -35.0520 142.3060 322° Northwest 429 494 36,000  Level FlightAware
07:27PM -34.9800 142.2400 323° Northwest 427 491 36,000  Level FlightAware
07:27PM -34.9250 142.1890 323° Northwest 426 490 36,000 240 Level FlightAware
07:28PM -34.8627 142.1314 323° Northwest 425 489 36,300  Climbing Aus ATC (RADAR)
07:28PM -34.8630 142.1310 323° Northwest 426 490 36,000 -540 Descending FlightAware
07:29PM -34.8150 142.0870 323° Northwest 427 491 36,000  Level FlightAware
07:29PM -34.7520 142.0290 323° Northwest 426 490 36,000 240 Level FlightAware
07:30PM -34.6982 141.9799 323° Northwest 424 488 36,300  Climbing Aus ATC (RADAR)
07:30PM -34.6970 141.9790 323° Northwest 426 490 36,000  Descending FlightAware
07:30PM -34.6433 141.9298 323° Northwest 422 486 36,300  Climbing Aus ATC (RADAR)
07:31PM -34.6330 141.9200 323° Northwest 425 489 36,000 -420 Descending FlightAware
07:31PM -34.5760 141.8680 323° Northwest 423 487 36,000 240 Level FlightAware
07:32PM -34.5266 141.8226 323° Northwest 420 483 36,300  Climbing Aus ATC (RADAR)
07:32PM -34.5230 141.8190 323° Northwest 422 486 36,000  Descending FlightAware
07:32PM -34.4723 141.7729 323° Northwest 418 481 36,300  Climbing Aus ATC (RADAR)
07:32PM -34.4780 141.7780 323° Northwest 422 486 36,000 -480 Descending FlightAware
07:33PM -34.4140 141.7190 323° Northwest 419 482 36,000  Level FlightAware
07:34PM -34.3660 141.6760 324° Northwest 419 482 36,000  Level FlightAware
07:34PM -34.2860 141.6030 323° Northwest 418 481 36,000  Level FlightAware
07:35PM -34.2330 141.5550 323° Northwest 416 479 36,000  Level FlightAware
07:35PM -34.1810 141.5070 323° Northwest 414 476 36,000  Level FlightAware
07:36PM -34.1240 141.4560 323° Northwest 413 475 36,000  Level FlightAware
07:37PM -34.0730 141.4100 323° Northwest 412 474 36,000  Level FlightAware
07:37PM -34.0160 141.3590 323° Northwest 412 474 36,000  Level FlightAware
07:38PM -33.9660 141.3140 323° Northwest 411 473 36,000 240 Level FlightAware
07:38PM -33.9127 141.2662 323° Northwest 407 468 36,300  Climbing Aus ATC (RADAR)
07:38PM -33.9040 141.2580 323° Northwest 411 473 36,000 -540 Descending FlightAware
07:39PM -33.8580 141.2170 323° Northwest 412 474 36,000  Level FlightAware
07:40PM -33.8050 141.1700 324° Northwest 412 474 36,000 240 Level FlightAware
07:40PM -33.7448 141.1158 324° Northwest 408 470 36,300  Climbing Aus ATC (RADAR)
07:40PM -33.7430 141.1140 324° Northwest 410 472 36,000 -600 Descending FlightAware
07:41PM -33.6970 141.0730 324° Northwest 409 471 36,000 540 Level FlightAware
07:41PM -33.6918 141.0685 324° Northwest 409 471 36,300  Climbing Aus ATC (RADAR)
07:41PM -33.6470 141.0290 324° Northwest 408 470 36,000 -300 Descending FlightAware
07:42PM -33.5920 140.9800 324° Northwest 408 470 36,000 420 Level FlightAware
07:42PM -33.5854 140.9740 324° Northwest 406 467 36,300  Climbing Aus ATC (RADAR)
07:42PM -33.5380 140.9320 324° Northwest 408 470 36,000  Descending FlightAware
07:43PM -33.5327 140.9270 324° Northwest 407 468 36,300  Climbing Aus ATC (RADAR)
07:43PM -33.4870 140.8870 324° Northwest 408 470 36,000 -300 Descending FlightAware
07:44PM -33.4260 140.8330 324° Northwest 407 468 36,000  Level FlightAware
07:44PM -33.3800 140.7920 324° Northwest 407 468 36,000 540 Level FlightAware
07:44PM -33.3735 140.7864 324° Northwest 406 467 36,300  Climbing Aus ATC (RADAR)
07:45PM -33.3240 140.7430 324° Northwest 406 467 36,000  Descending FlightAware
07:45PM -33.3203 140.7394 324° Northwest 407 468 36,300  Climbing Aus ATC (RADAR)
07:45PM -33.2740 140.6990 324° Northwest 405 466 36,000 -300 Descending FlightAware
07:46PM -33.2220 140.6530 323° Northwest 403 464 36,000  Level FlightAware
07:47PM -33.1680 140.6060 324° Northwest 400 460 36,000  Level FlightAware
07:47PM -33.1080 140.5520 323° Northwest 399 459 36,000  Level FlightAware
07:48PM -33.0620 140.5130 325° Northwest 398 458 36,000  Level FlightAware
07:48PM -33.0090 140.4660 323° Northwest 395 455 36,000  Level FlightAware
07:49PM -32.9580 140.4220 324° Northwest 386 444 36,000  Level FlightAware
07:50PM -32.9060 140.3760 323° Northwest 386 444 36,000  Level FlightAware
07:50PM -32.8570 140.3340 324° Northwest 385 443 36,000  Level FlightAware
07:51PM -32.8050 140.2880 323° Northwest 391 450 36,000  Level FlightAware
07:51PM -32.7500 140.2410 324° Northwest 391 450 36,000  Level FlightAware
07:52PM -32.6960 140.1940 324° Northwest 390 449 36,000  Level FlightAware
07:52PM -32.6500 140.1540 324° Northwest 389 448 36,000  Level FlightAware
07:53PM -32.5820 140.0960 324° Northwest 386 444 36,000  Level FlightAware
07:54PM -32.5330 140.0540 324° Northwest 385 443 36,000 240 Level FlightAware
07:54PM -32.4833 140.0111 324° Northwest 386 444 36,300  Climbing Aus ATC (RADAR)
07:54PM -32.4840 140.0120 324° Northwest 383 441 36,000  Descending FlightAware
07:55PM -32.4336 139.9683 324° Northwest 382 440 36,300  Climbing Aus ATC (RADAR)
07:55PM -32.4270 139.9620 324° Northwest 382 440 36,000 -480 Descending FlightAware
07:56PM -32.3770 139.9190 324° Northwest 382 440 36,000  Level FlightAware
07:56PM -32.3270 139.8770 325° Northwest 382 440 36,000  Level FlightAware
07:57PM -32.2700 139.8280 324° Northwest 383 441 36,000  Level FlightAware
07:57PM -32.2200 139.7850 324° Northwest 382 440 36,000  Level FlightAware
07:58PM -32.1750 139.7470 324° Northwest 382 440 36,000 240 Level FlightAware
07:59PM -32.1259 139.7049 324° Northwest 381 438 36,300  Climbing Aus ATC (RADAR)
07:59PM -32.1190 139.6990 324° Northwest 382 440 36,000  Descending FlightAware
07:59PM -32.0756 139.6627 324° Northwest 381 438 36,300  Climbing Aus ATC (RADAR)
07:59PM -32.0590 139.6470 324° Northwest 382 440 36,000 -360 Descending FlightAware
08:00PM -32.0040 139.6010 325° Northwest 382 440 36,000  Level FlightAware
08:01PM -31.9590 139.5620 324° Northwest 382 440 36,000 240 Level FlightAware
08:01PM -31.8891 139.5027 324° Northwest 387 445 36,300  Climbing Aus ATC (RADAR)
08:01PM -31.8900 139.5040 324° Northwest 381 438 36,000 -420 Descending FlightAware
08:02PM -31.8460 139.4670 324° Northwest 381 438 36,000 240 Level FlightAware
08:03PM -31.7823 139.4139 324° Northwest 381 438 36,300  Climbing Aus ATC (RADAR)
08:03PM -31.8030 139.4300 324° Northwest 381 438 36,000 -480 Descending FlightAware
08:03PM -31.7590 139.3920 324° Northwest 381 438 36,000  Level FlightAware
08:04PM -31.7150 139.3550 324° Northwest 381 438 36,000  Level FlightAware
08:04PM -31.6710 139.3170 324° Northwest 381 438 36,000 240 Level FlightAware
08:05PM -31.5769 139.2409 324° Northwest 376 433 36,300  Climbing Aus ATC (RADAR)
08:05PM -31.6270 139.2790 324° Northwest 381 438 36,000  Descending FlightAware
08:06PM -31.5204 139.1938 324° Northwest 375 432 36,300  Climbing Aus ATC (RADAR)
08:06PM -31.5830 139.2420 324° Northwest 381 438 36,000  Descending FlightAware
08:06PM -31.4711 139.1513 324° Northwest 377 434 36,300  Climbing Aus ATC (RADAR)
08:06PM -31.5400 139.2050 324° Northwest 381 438 36,000 -480 Descending FlightAware
08:07PM -31.4960 139.1680 324° Northwest 381 438 36,000  Level FlightAware
08:07PM -31.4520 139.1310 324° Northwest 381 438 36,000  Level FlightAware
08:08PM -31.4090 139.0940 324° Northwest 381 438 36,000  Level FlightAware
08:09PM -31.3630 139.0540 323° Northwest 381 438 36,000 240 Level FlightAware
08:09PM -31.2194 138.9408 323° Northwest 373 429 36,300  Climbing Aus ATC (RADAR)
08:09PM -31.3190 139.0170 323° Northwest 381 438 36,000 -480 Descending FlightAware
08:10PM -31.2750 138.9800 324° Northwest 381 438 36,000  Level FlightAware
08:10PM -31.2320 138.9430 324° Northwest 381 438 36,000 240 Level FlightAware
08:11PM -31.0644 138.8159 324° Northwest 373 429 36,300 240 Climbing Aus ATC (RADAR)
08:12PM -31.0153 138.7741 324° Northwest 371 427 36,300  Level Aus ATC (RADAR)
08:12PM -30.9585 138.7239 323° Northwest 380 437 36,300  Level Aus ATC (RADAR)
08:13PM -30.9161 138.6903 326° Northwest 376 433 36,300  Level Aus ATC (RADAR)
08:13PM -30.8667 138.6530 327° Northwest 372 428 36,300  Level Aus ATC (RADAR)
08:14PM -30.7956 138.5948 325° Northwest 374 430 36,300 -60 Level Aus ATC (RADAR)
08:17PM -30.5553 138.4189 328° Northwest 36,000 -60 Descending Aus ATC (Calculated)
08:19PM -30.3936 138.3026 328° Northwest  Level Estimated
08:20PM -30.3100 138.2426 328° Northwest  Level Estimated
08:21PM -30.2263 138.1827 328° Northwest  Level Estimated
08:21PM -30.1191 138.1022 328° Northwest 36,000  Level Aus ATC (Calculated)
08:22PM -30.1426 138.1229 328° Northwest  Level Estimated
08:23PM -30.0326 138.0405 328° Northwest  Level Estimated
08:24PM -29.9488 137.9810 328° Northwest  Level Estimated
08:25PM -29.8650 137.9216 328° Northwest  Level Estimated
08:26PM -29.7811 137.8623 328° Northwest  Level Estimated
08:26PM -29.7050 137.8045 328° Northwest 36,000  Level Aus ATC (Calculated)
08:27PM -29.6972 137.8031 328° Northwest  Level Estimated
08:28PM -29.6177 137.7431 329° Northwest  Level Estimated
08:29PM -29.5332 137.6837 329° Northwest  Level Estimated
08:30PM -29.4487 137.6244 329° Northwest  Level Estimated
08:31PM -29.3642 137.5653 329° Northwest  Level Estimated
08:31PM -29.2882 137.5079 328° Northwest 36,000  Level Aus ATC (Calculated)
08:32PM -29.2796 137.5062 329° Northwest  Level Estimated
08:33PM -29.2008 137.4470 329° Northwest  Level Estimated
08:34PM -29.1162 137.3882 329° Northwest  Level Estimated
08:34PM -29.0883 137.3667 329° Northwest 36,000  Level Aus ATC (Calculated)
08:35PM -28.9800 137.2904 329° Northwest 36,000  Level Aus ATC (Calculated)
08:35PM -28.9800 137.2904 329° Northwest 36,000  Level Aus ATC (Calculated)
08:36PM -28.8851 137.2238 329° Northwest 36,000  Level Aus ATC (Calculated)
08:37PM -28.8924 137.2299 329° Northwest  Level Estimated
08:37PM -28.8021 137.1656 329° Northwest 36,000  Level Aus ATC (Calculated)
08:39PM -28.6918 137.0898 329° Northwest  Level Estimated
08:39PM -28.5840 137.0132 329° Northwest 36,000  Level Aus ATC (Calculated)
08:40PM -28.6070 137.0316 329° Northwest  Level Estimated
08:40PM -28.5840 137.0132 329° Northwest 36,000  Level Aus ATC (Calculated)
08:42PM -28.4185 136.9002 329° Northwest  Level Estimated
08:42PM -28.3567 136.8552 329° Northwest 36,000  Level Aus ATC (Calculated)
08:43PM -28.2885 136.8080 329° Northwest 36,000  Level Aus ATC (Calculated)
08:45PM -28.1487 136.7133 329° Northwest  Level Estimated
08:46PM -28.0632 136.6554 329° Northwest  Level Estimated
08:47PM -27.9776 136.5976 329° Northwest  Level Estimated
08:48PM -27.8920 136.5399 329° Northwest  Level Estimated
08:48PM -27.8366 136.5003 329° Northwest 36,000  Level Aus ATC (Calculated)
08:49PM -27.7406 136.4354 329° Northwest 36,000  Level Aus ATC (Calculated)
08:51PM -27.6134 136.3503 329° Northwest  Level Estimated
08:52PM -27.5277 136.2931 329° Northwest  Level Estimated
08:53PM -27.4419 136.2359 329° Northwest  Level Estimated
08:54PM -27.3561 136.1789 329° Northwest  Level Estimated
08:54PM -27.2602 136.1129 329° Northwest 36,000  Level Aus ATC (Calculated)
08:55PM -27.2703 136.1219 329° Northwest  Level Estimated
08:56PM -27.1314 136.0277 330° Northwest  Level Estimated
08:57PM -27.0455 135.9710 330° Northwest  Level Estimated
08:58PM -26.9596 135.9144 330° Northwest  Level Estimated
08:58PM -26.7650 135.7840 330° Northwest 407 468 36,000  Level FlightAware
08:59PM -26.8736 135.8578 330° Northwest  Level Estimated
08:59PM -26.7130 135.7490 329° Northwest 405 466 36,000  Level FlightAware
08:59PM -26.8272 135.8250 329° Northwest 36,000  Level Aus ATC (Calculated)
08:59PM -26.6560 135.7120 329° Northwest 404 465 36,000  Level FlightAware
09:00PM -26.6030 135.6770 329° Northwest 402 463 36,000  Level FlightAware
09:00PM -26.7309 135.7613 329° Northwest 36,000  Level Aus ATC (Calculated)
09:00PM -26.7309 135.7613 329° Northwest 36,000  Level Aus ATC (Calculated)
09:00PM -26.5440 135.6370 329° Northwest 397 457 36,000  Level FlightAware
09:01PM -26.4980 135.6040 327° Northwest 394 453 36,000  Level FlightAware
09:02PM -26.4240 135.5500 327° Northwest 395 455 36,000  Level FlightAware
09:03PM -26.3550 135.5010 328° Northwest 396 456 36,000  Level FlightAware
09:03PM -26.2900 135.4550 328° Northwest 397 457 36,000  Level FlightAware
09:03PM -26.4669 135.5875 326° Northwest 28,100  Descending Aus ATC (Calculated)
09:04PM -26.2400 135.4200 328° Northwest 398 458 36,000 6,960 Climbing FlightAware
09:04PM -26.1830 135.3800 328° Northwest 399 459 36,000  Level FlightAware
09:05PM -26.1260 135.3400 328° Northwest 399 459 36,000  Level FlightAware
09:05PM -26.2510 135.4459 324° Northwest 28,100  Descending Aus ATC (Calculated)
09:06PM -26.0640 135.2960 327° Northwest 401 461 36,000 6,960 Climbing FlightAware
09:06PM -26.0100 135.2580 327° Northwest 402 463 36,000  Level FlightAware
09:07PM -25.9550 135.2190 327° Northwest 404 465 36,000  Level FlightAware
09:07PM -25.8960 135.1770 327° Northwest 404 465 36,000  Level FlightAware
09:08PM -25.8410 135.1390 328° Northwest 406 467 36,000  Level FlightAware
09:08PM -25.7880 135.1020 328° Northwest 407 468 36,000  Level FlightAware
09:09PM -25.7340 135.0640 328° Northwest 408 470 36,000  Level FlightAware
09:10PM -25.6790 135.0250 327° Northwest 408 470 36,000  Level FlightAware
09:10PM -25.8188 135.1645 321° Northwest 28,100  Descending Aus ATC (Calculated)
09:10PM -25.6220 134.9850 328° Northwest 408 470 36,000 9,240 Climbing FlightAware
09:11PM -25.5630 134.9440 328° Northwest 408 470 36,000  Level FlightAware
09:11PM -25.5060 134.9040 328° Northwest 409 471 36,000  Level FlightAware
09:12PM -25.4520 134.8670 328° Northwest 409 471 36,000  Level FlightAware
09:13PM -25.3980 134.8290 328° Northwest 410 472 36,000  Level FlightAware
09:13PM -25.3440 134.7920 328° Northwest 410 472 36,000  Level FlightAware
09:14PM -25.2860 134.7510 327° Northwest 410 472 36,000  Level FlightAware
09:14PM -25.4401 134.9198 318° Northwest 28,100  Descending Aus ATC (Calculated)
09:14PM -25.2250 134.7080 327° Northwest 410 472 36,000 12,120 Climbing FlightAware
09:15PM -25.1680 134.6690 327° Northwest 411 473 36,000  Level FlightAware
09:15PM -25.3319 134.8502 318° Northwest 28,100  Descending Aus ATC (Calculated)
09:15PM -25.1150 134.6330 327° Northwest 409 471 36,000 10,200 Climbing FlightAware
09:16PM -25.3319 134.8502 320° Northwest 28,100 -1,860 Descending Aus ATC (Calculated)
09:16PM -25.0580 134.5930 327° Northwest 400 460 34,900 4,200 Climbing FlightAware
09:17PM -24.9980 134.5510 328° Northwest 407 468 32,900 -3,360 Descending FlightAware
09:17PM -24.9470 134.5170 329° Northwest 414 476 31,000 -3,540 Descending FlightAware
09:17PM -25.1694 134.7460 319° Northwest 28,100 -3,540 Descending Aus ATC (Calculated)
09:18PM -24.8880 134.4760 329° Northwest 420 483 28,900 -1,200 Climbing FlightAware
09:18PM -24.8280 134.4340 328° Northwest 423 487 26,800 -3,180 Descending FlightAware
09:19PM -25.0069 134.6421 317° Northwest 28,100 -2,760 Climbing Aus ATC (Calculated)
09:19PM -24.7710 134.3960 328° Northwest 415 478 25,200 -8,040 Descending FlightAware
09:20PM -24.7160 134.3570 327° Northwest 415 478 23,300 -3,000 Descending FlightAware
09:20PM -24.6580 134.3180 329° Northwest 400 460 21,800 -2,640 Descending FlightAware
09:20PM -24.8803 134.5616 317° Northwest 2,400 -2,700 Descending Aus ATC (Calculated)
09:21PM -24.8803 134.5616 317° Northwest 2,400 32,340 Level Aus ATC (Calculated)
09:21PM -24.6030 134.2800 329° Northwest 390 449 20,200 23,820 Climbing FlightAware
09:21PM -24.5530 134.2460 329° Northwest 382 440 18,700 -2,760 Descending FlightAware
09:22PM -24.7354 134.4698 315° West 2,400 -2,760 Descending Aus ATC (Calculated)
09:22PM -24.4970 134.2070 328° Northwest 375 432 17,000 20,160 Climbing FlightAware
09:23PM -24.4460 134.1720 328° Northwest 371 427 15,200 -3,000 Descending FlightAware
09:23PM -24.3970 134.1390 328° Northwest 367 422 13,600 -2,760 Descending FlightAware
09:24PM -24.3520 134.1080 328° Northwest 364 419 12,200 -2,700 Descending FlightAware
09:24PM -24.2970 134.0700 328° Northwest 361 415 10,500 -1,980 Descending FlightAware
09:25PM -24.5181 134.3325 315° West 2,400 -1,200 Descending Aus ATC (Calculated)
09:25PM -24.2500 134.0390 329° Northwest 334 384 9,800 18,480 Climbing FlightAware
09:25PM -24.2220 134.0190 327° Northwest 318 366 9,500 -1,380 Descending FlightAware
09:26PM -24.1920 133.9990 329° Northwest 309 356 8,800 -1,920 Descending FlightAware
09:26PM -24.1680 133.9830 329° Northwest 309 356 8,100 -2,100 Descending FlightAware
09:26PM -24.1540 133.9730 327° Northwest 312 359 7,700 -1,320 Descending FlightAware
09:26PM -24.1290 133.9560 328° Northwest 296 341 7,400 -720 Descending FlightAware
09:27PM -24.1020 133.9380 329° Northwest 275 316 7,200 -480 Descending FlightAware
09:27PM -24.0830 133.9250 328° Northwest 263 303 7,100 -420 Descending FlightAware
09:27PM -24.0700 133.9160 328° Northwest 260 299 7,000 -540 Descending FlightAware
09:28PM -24.0450 133.9010 331° Northwest 262 302 6,800 -600 Descending FlightAware
09:28PM -24.3006 134.1957 315° West 2,400 -600 Descending Aus ATC (Calculated)
09:28PM -24.0210 133.8910 331° Northwest 264 304 6,600 5,820 Climbing FlightAware
09:28PM -23.9980 133.8820 340° North 260 299 6,300 -780 Descending FlightAware
09:29PM -23.9760 133.8730 340° North 250 288 6,100 -780 Descending FlightAware
09:29PM -23.9550 133.8640 339° North 242 278 5,800 -720 Descending FlightAware
09:30PM -23.9300 133.8540 340° North 232 267 5,600 -840 Descending FlightAware
09:30PM -23.9090 133.8460 341° North 228 262 5,200 -1,140 Descending FlightAware
09:30PM -23.8980 133.8410 337° Northwest 225 259 5,000 -1,080 Descending FlightAware
09:30PM -23.8750 133.8320 340° North 219 252 4,600 -1,080 Descending FlightAware
09:31PM -24.0830 134.0593 317° Northwest 2,400 -1,140 Descending Aus ATC (Calculated)
09:31PM -23.8550 133.8230 340° North 214 246 4,200 7,380 Climbing FlightAware
09:31PM -23.8450 133.8200 345° North 209 241 4,000 -1,200 Descending FlightAware
09:31PM -23.8270 133.8130 340° North 191 220 3,600 -1,080 Descending FlightAware
09:31PM -23.8190 133.8110 347° North 182 209 3,500 -780 Descending FlightAware
09:32PM -23.8150 133.8100 347° North 175 201 3,400 -900 Descending FlightAware
09:32PM -23.8000 133.8140 14° North 166 191 3,100 -840 Descending FlightAware
09:32PM -23.7900 133.8220 36° Northeast 151 174 2,900 -840 Descending FlightAware
09:32PM -23.7870 133.8260 51° Northeast 149 171 2,800 -900 Descending FlightAware
09:33PM -23.7830 133.8350 64° Northeast 148 170 2,600 -840 Descending FlightAware
09:33PM -23.7810 133.8410 70° East 149 171 2,500 -480 Descending FlightAware
09:33PM -23.7810 133.8470 90° East 149 171 2,500 -720 Level FlightAware
09:33PM -23.7840 133.8600 104° East 148 170 2,200 -840 Descending FlightAware
09:33PM -23.7860 133.8660 110° East 147 169 2,100 -840 Descending FlightAware
09:34PM -23.8653 133.9234 331° Northwest 2,400 -900 Climbing Aus ATC (Calculated)
09:34PM -23.7940 133.8800 122° Southeast 147 169 1,800 -2,400 Descending FlightAware
09:34PM -23.8000 133.8920 122° Southeast 150 173 1,600 -660 Descending FlightAware
09:34PM -23.7927 133.8782 120° Southeast 2,400 3,000 Climbing Aus ATC (Calculated)
09:34PM -23.8070 133.9050 120° Southeast 105 121 -24,000 Descending FlightAware